createdAt,value
2017-12-13T00:00:05.295Z,1.23
2017-12-13T00:02:32.158Z,3.55
2017-12-13T00:04:58.983Z,1.42
2017-12-13T00:07:25.819Z,2.15
2017-12-13T00:09:52.685Z,1.00
2017-12-13T00:12:19.686Z,1.58
2017-12-13T00:14:46.539Z,1.20
2017-12-13T00:17:13.343Z,1.52
2017-12-13T00:19:40.928Z,1.25
2017-12-13T00:22:07.842Z,1.90
2017-12-13T00:24:34.646Z,1.90
2017-12-13T00:27:01.474Z,5.78
2017-12-13T00:29:28.342Z,2.25
2017-12-13T00:31:55.161Z,1.62
2017-12-13T00:34:21.996Z,1.50
2017-12-13T00:36:48.834Z,2.65
2017-12-13T00:39:15.878Z,3.78
2017-12-13T00:41:42.722Z,1.48
2017-12-13T00:44:09.585Z,2.72
2017-12-13T00:46:36.427Z,1.17
2017-12-13T00:49:04.026Z,1.23
2017-12-13T00:51:31.649Z,2.33
2017-12-13T00:53:58.510Z,1.77
2017-12-13T00:56:26.181Z,2.40
2017-12-13T00:58:53.783Z,0.75
2017-12-13T01:01:20.627Z,2.15
2017-12-13T01:03:47.496Z,1.70
2017-12-13T01:06:14.311Z,1.25
2017-12-13T01:08:41.184Z,1.50
2017-12-13T01:11:08.794Z,1.40
2017-12-13T01:13:35.674Z,1.65
2017-12-13T01:16:02.526Z,1.83
2017-12-13T01:18:29.376Z,2.22
2017-12-13T01:20:56.382Z,2.00
2017-12-13T01:23:23.234Z,1.75
2017-12-13T01:25:50.121Z,1.40
2017-12-13T01:28:17.727Z,1.40
2017-12-13T01:30:45.277Z,1.98
2017-12-13T01:33:12.143Z,1.45
2017-12-13T01:35:39.010Z,1.40
2017-12-13T01:38:05.864Z,1.45
2017-12-13T01:40:32.722Z,1.80
2017-12-13T01:43:00.367Z,1.90
2017-12-13T01:45:27.187Z,2.50
2017-12-13T01:47:54.107Z,1.40
2017-12-13T01:50:20.975Z,2.17
2017-12-13T01:52:47.825Z,3.62
2017-12-13T01:55:14.735Z,3.92
2017-12-13T01:57:41.619Z,3.80
2017-12-13T02:00:08.445Z,1.85
2017-12-13T02:02:35.322Z,2.05
2017-12-13T02:05:02.174Z,2.28
2017-12-13T02:07:29.054Z,2.62
2017-12-13T02:09:55.890Z,2.95
2017-12-13T02:12:22.748Z,3.17
2017-12-13T02:14:49.645Z,3.75
2017-12-13T02:17:16.498Z,2.90
2017-12-13T02:19:44.106Z,2.80
2017-12-13T02:22:11.007Z,2.60
2017-12-13T02:24:37.922Z,3.35
2017-12-13T02:27:04.758Z,3.08
2017-12-13T02:29:31.635Z,3.20
2017-12-13T02:31:58.459Z,2.87
2017-12-13T02:34:25.469Z,3.15
2017-12-13T02:36:52.308Z,3.37
2017-12-13T02:39:19.135Z,3.67
2017-12-13T02:41:45.988Z,3.30
2017-12-13T02:44:12.844Z,3.25
2017-12-13T02:46:39.719Z,2.75
2017-12-13T02:49:06.536Z,3.85
2017-12-13T02:51:33.370Z,4.07
2017-12-13T02:54:00.298Z,4.22
2017-12-13T02:56:27.183Z,4.57
2017-12-13T02:58:54.151Z,5.95
2017-12-13T03:01:20.974Z,5.57
2017-12-13T03:03:47.789Z,5.15
2017-12-13T03:06:14.683Z,4.15
2017-12-13T03:08:42.258Z,4.43
2017-12-13T03:11:09.126Z,5.10
2017-12-13T03:13:35.975Z,4.43
2017-12-13T03:16:02.858Z,3.75
2017-12-13T03:18:29.694Z,5.07
2017-12-13T03:20:56.527Z,4.43
2017-12-13T03:23:23.421Z,4.53
2017-12-13T03:25:50.306Z,5.10
2017-12-13T03:28:17.193Z,4.35
2017-12-13T03:30:44.055Z,3.90
2017-12-13T03:33:10.894Z,3.75
2017-12-13T03:35:37.742Z,5.00
2017-12-13T03:38:05.310Z,4.53
2017-12-13T03:40:32.163Z,5.37
2017-12-13T03:42:59.011Z,4.45
2017-12-13T03:45:25.870Z,4.20
2017-12-13T03:47:52.728Z,4.53
2017-12-13T03:50:19.570Z,3.55
2017-12-13T03:52:46.405Z,4.28
2017-12-13T03:55:13.230Z,3.80
2017-12-13T03:57:40.035Z,3.55
2017-12-13T04:00:06.923Z,3.08
2017-12-13T04:02:33.791Z,4.03
2017-12-13T04:05:00.632Z,3.28
2017-12-13T04:07:27.459Z,4.05
2017-12-13T04:09:54.314Z,4.32
2017-12-13T04:12:21.170Z,4.62
2017-12-13T04:14:48.759Z,3.20
2017-12-13T04:17:16.339Z,4.72
2017-12-13T04:19:43.209Z,4.82
2017-12-13T04:22:10.087Z,4.85
2017-12-13T04:24:36.913Z,4.68
2017-12-13T04:27:03.755Z,4.12
2017-12-13T04:29:30.646Z,4.60
2017-12-13T04:31:58.217Z,4.40
2017-12-13T04:34:25.050Z,6.82
2017-12-13T04:36:51.907Z,4.87
2017-12-13T04:39:18.742Z,3.67
2017-12-13T04:41:45.574Z,5.35
2017-12-13T04:44:12.402Z,4.55
2017-12-13T04:46:39.378Z,4.10
2017-12-13T04:49:06.205Z,4.55
2017-12-13T04:51:33.018Z,4.62
2017-12-13T04:54:00.629Z,5.53
2017-12-13T04:56:27.462Z,4.72
2017-12-13T04:58:54.338Z,6.00
2017-12-13T05:01:21.239Z,5.53
2017-12-13T05:03:48.075Z,5.50
2017-12-13T05:06:14.902Z,7.05
2017-12-13T05:08:41.757Z,6.45
2017-12-13T05:11:08.680Z,6.25
2017-12-13T05:13:35.552Z,6.03
2017-12-13T05:16:02.431Z,5.50
2017-12-13T05:18:29.294Z,7.00
2017-12-13T05:20:56.349Z,6.87
2017-12-13T05:23:23.970Z,6.72
2017-12-13T05:25:50.798Z,7.62
2017-12-13T05:28:17.749Z,7.82
2017-12-13T05:30:45.390Z,11.23
2017-12-13T05:33:12.930Z,8.07
2017-12-13T05:35:39.790Z,8.77
2017-12-13T05:38:06.638Z,6.57
2017-12-13T05:40:33.470Z,7.53
2017-12-13T05:43:00.541Z,7.43
2017-12-13T05:45:27.559Z,7.62
2017-12-13T05:47:54.462Z,8.05
2017-12-13T05:50:21.319Z,5.35
2017-12-13T05:52:48.173Z,7.57
2017-12-13T05:55:15.802Z,7.10
2017-12-13T05:57:42.676Z,9.30
2017-12-13T06:00:09.552Z,11.80
2017-12-13T06:02:36.386Z,10.25
2017-12-13T06:05:03.267Z,7.18
2017-12-13T06:07:30.106Z,7.03
2017-12-13T06:09:56.985Z,10.48
2017-12-13T06:12:24.582Z,8.75
2017-12-13T06:14:51.430Z,8.18
2017-12-13T06:17:18.299Z,10.35
2017-12-13T06:19:45.153Z,8.18
2017-12-13T06:22:12.373Z,7.37
2017-12-13T06:24:39.265Z,8.65
2017-12-13T06:27:06.094Z,9.30
2017-12-13T06:29:32.930Z,9.05
2017-12-13T06:31:59.766Z,8.13
2017-12-13T06:34:26.704Z,8.20
2017-12-13T06:36:54.366Z,7.87
2017-12-13T06:39:21.251Z,7.90
2017-12-13T06:41:48.239Z,7.28
2017-12-13T06:44:15.102Z,7.05
2017-12-13T06:46:41.911Z,8.55
2017-12-13T06:49:08.792Z,9.32
2017-12-13T06:51:35.639Z,7.57
2017-12-13T06:54:03.242Z,6.82
2017-12-13T06:56:30.853Z,6.93
2017-12-13T06:58:57.722Z,7.70
2017-12-13T07:01:24.731Z,9.13
2017-12-13T07:03:52.362Z,7.72
2017-12-13T07:06:19.986Z,6.28
2017-12-13T07:08:46.884Z,7.78
2017-12-13T07:11:14.440Z,9.90
2017-12-13T07:13:41.267Z,7.75
2017-12-13T07:16:08.093Z,7.70
2017-12-13T07:18:35.714Z,8.80
2017-12-13T07:21:02.583Z,10.82
2017-12-13T07:23:29.438Z,9.02
2017-12-13T07:25:57.059Z,11.15
2017-12-13T07:28:23.951Z,10.77
2017-12-13T07:30:50.806Z,12.27
2017-12-13T07:33:17.695Z,7.97
2017-12-13T07:35:44.575Z,8.98
2017-12-13T07:38:12.183Z,8.13
2017-12-13T07:40:39.735Z,11.40
2017-12-13T07:43:06.610Z,8.55
2017-12-13T07:45:33.477Z,12.02
2017-12-13T07:48:01.057Z,9.20
2017-12-13T07:50:28.645Z,9.05
2017-12-13T07:52:55.497Z,8.15
2017-12-13T07:55:22.355Z,12.02
2017-12-13T07:57:49.203Z,6.87
2017-12-13T08:00:16.184Z,7.80
2017-12-13T08:02:43.773Z,7.75
2017-12-13T08:05:10.626Z,8.32
2017-12-13T08:07:37.484Z,6.32
2017-12-13T08:10:04.389Z,6.95
2017-12-13T08:12:31.943Z,6.40
2017-12-13T08:14:58.795Z,7.15
2017-12-13T08:17:26.375Z,6.57
2017-12-13T08:19:53.231Z,7.18
2017-12-13T08:22:20.092Z,10.15
2017-12-13T08:24:47.681Z,8.38
2017-12-13T08:27:15.298Z,9.85
2017-12-13T08:29:42.182Z,11.63
2017-12-13T08:32:09.763Z,10.00
2017-12-13T08:34:36.685Z,10.30
2017-12-13T08:37:04.289Z,12.07
2017-12-13T08:39:31.186Z,14.13
2017-12-13T08:41:58.797Z,7.80
2017-12-13T08:44:25.701Z,7.57
2017-12-13T08:46:53.322Z,8.23
2017-12-13T08:49:20.205Z,7.78
2017-12-13T08:51:47.794Z,9.43
2017-12-13T08:54:14.710Z,7.40
2017-12-13T08:56:42.310Z,8.55
2017-12-13T08:59:09.126Z,8.55
2017-12-13T09:01:36.027Z,8.15
2017-12-13T09:04:02.891Z,7.20
2017-12-13T09:06:29.799Z,9.13
2017-12-13T09:08:56.651Z,9.27
2017-12-13T09:11:23.554Z,8.13
2017-12-13T09:13:50.410Z,9.88
2017-12-13T09:16:17.266Z,8.13
2017-12-13T09:18:44.146Z,14.10
2017-12-13T09:21:11.723Z,38.75
2017-12-13T09:23:40.202Z,10.05
2017-12-13T09:26:07.778Z,8.30
2017-12-13T09:28:34.683Z,8.50
2017-12-13T09:31:01.561Z,9.07
2017-12-13T09:33:28.426Z,8.60
2017-12-13T09:35:55.386Z,10.93
2017-12-13T09:38:22.226Z,9.73
2017-12-13T09:40:49.111Z,9.77
2017-12-13T09:43:16.755Z,11.48
2017-12-13T09:45:43.618Z,9.57
2017-12-13T09:48:10.499Z,11.95
2017-12-13T09:50:37.362Z,10.93
2017-12-13T09:53:04.214Z,9.10
2017-12-13T09:55:31.055Z,14.23
2017-12-13T09:57:57.966Z,9.93
2017-12-13T10:00:24.858Z,13.15
2017-12-13T10:02:51.742Z,10.95
2017-12-13T10:05:18.646Z,14.48
2017-12-13T10:07:45.530Z,12.48
2017-12-13T10:10:12.430Z,13.23
2017-12-13T10:12:39.287Z,13.32
2017-12-13T10:15:06.170Z,9.05
2017-12-13T10:17:33.066Z,10.88
2017-12-13T10:19:59.930Z,8.02
2017-12-13T10:22:27.531Z,9.60
2017-12-13T10:24:54.379Z,9.02
2017-12-13T10:27:21.257Z,15.55
2017-12-13T10:29:48.091Z,10.90
2017-12-13T10:32:15.712Z,8.65
2017-12-13T10:34:42.555Z,9.88
2017-12-13T10:37:09.373Z,11.65
2017-12-13T10:39:36.974Z,10.45
2017-12-13T10:42:03.796Z,7.35
2017-12-13T10:44:30.669Z,9.27
2017-12-13T10:46:58.279Z,8.77
2017-12-13T10:49:25.870Z,6.70
2017-12-13T10:51:52.762Z,3.08
2017-12-13T10:54:19.624Z,2.85
2017-12-13T10:56:47.198Z,2.90
2017-12-13T10:59:14.794Z,4.57
2017-12-13T11:01:41.718Z,6.03
2017-12-13T11:04:08.574Z,8.00
2017-12-13T11:06:35.469Z,7.60
2017-12-13T11:09:02.458Z,7.00
2017-12-13T11:11:29.342Z,7.00
2017-12-13T11:13:56.209Z,7.20
2017-12-13T11:16:23.130Z,7.85
2017-12-13T11:18:50.782Z,11.27
2017-12-13T11:21:17.659Z,8.77
2017-12-13T11:23:44.526Z,8.85
2017-12-13T11:26:11.530Z,11.07
2017-12-13T11:28:39.179Z,9.55
2017-12-13T11:31:06.031Z,10.73
2017-12-13T11:33:32.899Z,11.35
2017-12-13T11:35:59.744Z,10.18
2017-12-13T11:38:26.650Z,8.63
2017-12-13T11:40:53.493Z,9.52
2017-12-13T11:43:20.366Z,10.02
2017-12-13T11:45:47.973Z,9.45
2017-12-13T11:48:14.871Z,7.15
2017-12-13T11:50:42.458Z,6.45
2017-12-13T11:53:09.311Z,8.23
2017-12-13T11:55:36.210Z,6.30
2017-12-13T11:58:03.204Z,8.55
2017-12-13T12:00:30.114Z,11.00
2017-12-13T12:02:56.998Z,8.00
2017-12-13T12:05:23.851Z,10.45
2017-12-13T12:07:50.813Z,6.03
2017-12-13T12:10:17.687Z,5.12
2017-12-13T12:12:45.295Z,7.15
2017-12-13T12:15:12.150Z,7.37
2017-12-13T12:17:38.998Z,8.50
2017-12-13T12:20:05.877Z,7.60
2017-12-13T12:22:32.747Z,7.10
2017-12-13T12:24:59.604Z,7.30
2017-12-13T12:27:26.494Z,5.60
2017-12-13T12:29:53.415Z,6.30
2017-12-13T12:32:20.275Z,8.27
2017-12-13T12:34:47.145Z,4.93
2017-12-13T12:37:14.023Z,4.55
2017-12-13T12:39:40.898Z,6.37
2017-12-13T12:42:07.768Z,5.68
2017-12-13T12:44:34.615Z,4.87
2017-12-13T12:47:01.478Z,4.50
2017-12-13T12:49:28.397Z,3.70
2017-12-13T12:51:55.231Z,4.20
2017-12-13T12:54:22.902Z,3.17
2017-12-13T12:56:49.738Z,5.28
2017-12-13T12:59:17.367Z,4.00
2017-12-13T13:01:44.208Z,8.40
2017-12-13T13:04:11.109Z,6.90
2017-12-13T13:06:38.011Z,5.25
2017-12-13T13:09:05.618Z,11.77
2017-12-13T13:11:32.462Z,7.68
2017-12-13T13:13:59.329Z,7.05
2017-12-13T13:16:26.206Z,7.20
2017-12-13T13:18:53.855Z,5.80
2017-12-13T13:21:20.758Z,7.45
2017-12-13T13:23:47.642Z,7.60
2017-12-13T13:26:14.499Z,4.93
2017-12-13T13:28:42.151Z,7.93
2017-12-13T13:31:09.794Z,7.60
2017-12-13T13:33:36.690Z,5.95
2017-12-13T13:36:03.634Z,8.15
2017-12-13T13:38:30.559Z,9.82
2017-12-13T13:40:58.246Z,7.68
2017-12-13T13:43:25.151Z,10.45
2017-12-13T13:45:52.866Z,9.23
2017-12-13T13:48:19.714Z,11.35
2017-12-13T13:50:46.558Z,7.45
2017-12-13T13:53:13.431Z,10.48
2017-12-13T13:55:40.307Z,9.07
2017-12-13T13:58:07.918Z,12.15
2017-12-13T14:00:34.755Z,9.50
2017-12-13T14:03:01.812Z,8.02
2017-12-13T14:05:28.686Z,10.13
2017-12-13T14:07:56.294Z,6.12
2017-12-13T14:10:23.366Z,6.50
2017-12-13T14:12:50.255Z,10.20
2017-12-13T14:15:17.110Z,8.50
2017-12-13T14:17:43.994Z,9.10
2017-12-13T14:20:10.877Z,10.10
2017-12-13T14:22:38.475Z,9.10
2017-12-13T14:25:05.353Z,11.77
2017-12-13T14:27:32.227Z,12.15
2017-12-13T14:29:59.895Z,10.02
2017-12-13T14:32:26.703Z,7.90
2017-12-13T14:34:53.545Z,14.87
2017-12-13T14:37:20.385Z,9.85
2017-12-13T14:39:48.096Z,9.82
2017-12-13T14:42:14.981Z,11.38
2017-12-13T14:44:41.819Z,10.30
2017-12-13T14:47:08.686Z,11.25
2017-12-13T14:49:35.530Z,11.05
2017-12-13T14:52:02.416Z,12.77
2017-12-13T14:54:29.276Z,12.45
2017-12-13T14:56:56.159Z,12.00
2017-12-13T14:59:23.046Z,10.85
2017-12-13T15:01:49.921Z,11.80
2017-12-13T15:04:16.817Z,10.48
2017-12-13T15:06:44.413Z,13.85
2017-12-13T15:09:11.274Z,12.98
2017-12-13T15:11:38.139Z,11.40
2017-12-13T15:14:04.994Z,14.07
2017-12-13T15:16:31.829Z,13.15
2017-12-13T15:18:58.674Z,12.55
2017-12-13T15:21:26.455Z,12.18
2017-12-13T15:23:54.130Z,12.90
2017-12-13T15:26:21.006Z,12.43
2017-12-13T15:28:47.856Z,18.02
2017-12-13T15:31:14.735Z,12.55
2017-12-13T15:33:41.695Z,15.15
2017-12-13T15:36:09.254Z,15.55
2017-12-13T15:38:36.082Z,12.45
2017-12-13T15:41:03.963Z,13.80
2017-12-13T15:43:31.546Z,13.68
2017-12-13T15:45:58.382Z,12.68
2017-12-13T15:48:25.967Z,12.27
2017-12-13T15:50:52.782Z,13.98
2017-12-13T15:53:19.633Z,14.18
2017-12-13T15:55:46.490Z,13.57
2017-12-13T15:58:13.367Z,13.85
2017-12-13T16:00:40.226Z,16.23
2017-12-13T16:03:07.096Z,13.70
2017-12-13T16:05:33.992Z,12.75
2017-12-13T16:08:00.875Z,15.23
2017-12-13T16:10:28.445Z,12.73
2017-12-13T16:12:55.274Z,16.87
2017-12-13T16:15:22.849Z,16.87
2017-12-13T16:17:51.273Z,15.05
2017-12-13T16:20:18.158Z,14.20
2017-12-13T16:22:45.746Z,14.65
2017-12-13T16:25:12.610Z,16.27
2017-12-13T16:27:39.460Z,19.15
2017-12-13T16:30:06.330Z,15.13
2017-12-13T16:32:33.166Z,13.27
2017-12-13T16:35:00.007Z,15.57
2017-12-13T16:37:26.870Z,15.15
2017-12-13T16:39:53.698Z,15.75
2017-12-13T16:42:20.571Z,25.95
2017-12-13T16:44:48.206Z,17.02
2017-12-13T16:47:15.873Z,15.68
2017-12-13T16:49:43.478Z,18.25
2017-12-13T16:52:10.370Z,15.93
2017-12-13T16:54:37.316Z,15.80
2017-12-13T16:57:04.250Z,15.95
2017-12-13T16:59:31.079Z,15.85
2017-12-13T17:01:57.944Z,16.42
2017-12-13T17:04:24.823Z,17.75
2017-12-13T17:06:51.783Z,16.73
2017-12-13T17:09:18.678Z,15.57
2017-12-13T17:11:46.284Z,15.98
2017-12-13T17:14:13.177Z,16.77
2017-12-13T17:16:40.067Z,20.42
2017-12-13T17:19:06.979Z,22.52
2017-12-13T17:21:34.618Z,20.90
2017-12-13T17:24:08.414Z,17.83
2017-12-13T17:26:35.324Z,19.50
2017-12-13T17:29:02.187Z,19.87
2017-12-13T17:31:29.242Z,19.62
2017-12-13T17:33:56.094Z,18.15
2017-12-13T17:36:22.939Z,20.12
2017-12-13T17:38:49.814Z,22.10
2017-12-13T17:41:17.418Z,24.67
2017-12-13T17:43:44.305Z,25.33
2017-12-13T17:46:11.179Z,26.10
2017-12-13T17:48:38.133Z,27.55
2017-12-13T17:51:05.035Z,27.75
2017-12-13T17:53:31.898Z,25.08
2017-12-13T17:55:59.489Z,23.60
2017-12-13T17:58:26.390Z,26.05
2017-12-13T18:00:54.071Z,26.30
2017-12-13T18:03:20.953Z,27.35
2017-12-13T18:05:47.827Z,27.70
2017-12-13T18:08:14.750Z,23.60
2017-12-13T18:10:41.614Z,21.77
2017-12-13T18:13:08.502Z,22.65
2017-12-13T18:15:35.396Z,20.08
2017-12-13T18:18:02.282Z,22.83
2017-12-13T18:20:29.158Z,22.58
2017-12-13T18:22:56.058Z,23.08
2017-12-13T18:25:23.707Z,26.60
2017-12-13T18:27:50.583Z,24.67
2017-12-13T18:30:17.488Z,23.48
2017-12-13T18:32:44.451Z,22.05
2017-12-13T18:35:11.359Z,21.62
2017-12-13T18:37:38.346Z,19.77
2017-12-13T18:40:05.482Z,23.40
2017-12-13T18:42:32.317Z,21.92
2017-12-13T18:44:59.218Z,22.17
2017-12-13T18:47:26.273Z,25.50
2017-12-13T18:49:53.259Z,33.97
2017-12-13T18:52:20.146Z,25.80
2017-12-13T18:54:47.026Z,41.92
2017-12-13T18:57:13.927Z,45.08
2017-12-13T18:59:40.846Z,43.00
2017-12-13T19:02:08.765Z,48.15
2017-12-13T19:04:35.664Z,46.55
2017-12-13T19:07:02.510Z,37.83
2017-12-13T19:09:29.418Z,37.03
2017-12-13T19:11:56.308Z,33.75
2017-12-13T19:14:23.190Z,44.13
2017-12-13T19:16:51.009Z,36.17
2017-12-13T19:19:18.963Z,42.78
2017-12-13T19:21:46.098Z,38.78
2017-12-13T19:24:12.946Z,33.60
2017-12-13T19:26:41.042Z,31.58
2017-12-13T19:29:09.219Z,31.95
2017-12-13T19:31:36.199Z,32.03
2017-12-13T19:34:03.230Z,37.63
2017-12-13T19:36:30.341Z,42.45
2017-12-13T19:38:57.303Z,30.85
2017-12-13T19:41:24.903Z,34.95
2017-12-13T19:43:51.994Z,35.05
2017-12-13T19:46:18.841Z,30.75
2017-12-13T19:48:46.647Z,33.17
2017-12-13T19:51:13.758Z,36.67
2017-12-13T19:53:41.032Z,31.87
2017-12-13T19:56:08.292Z,29.70
2017-12-13T19:58:35.292Z,33.50
2017-12-13T20:01:02.359Z,33.15
2017-12-13T20:03:29.307Z,34.28
2017-12-13T20:05:56.375Z,36.13
2017-12-13T20:08:23.350Z,41.20
2017-12-13T20:10:50.255Z,35.72
2017-12-13T20:13:17.269Z,34.28
2017-12-13T20:15:44.425Z,32.08
2017-12-13T20:18:11.467Z,37.42
2017-12-13T20:20:38.414Z,35.72
2017-12-13T20:23:05.306Z,33.15
2017-12-13T20:25:32.204Z,35.05
2017-12-13T20:27:59.110Z,35.22
2017-12-13T20:30:25.960Z,38.13
2017-12-13T20:32:52.876Z,36.03
2017-12-13T20:35:19.881Z,36.08
2017-12-13T20:37:46.743Z,37.28
2017-12-13T20:40:13.747Z,38.33
2017-12-13T20:42:41.618Z,37.03
2017-12-13T20:45:08.645Z,37.65
2017-12-13T20:47:35.470Z,32.85
2017-12-13T20:50:02.351Z,32.92
2017-12-13T20:52:29.931Z,49.55
2017-12-13T20:54:56.778Z,36.70
2017-12-13T20:57:24.430Z,42.92
2017-12-13T20:59:52.262Z,36.00
2017-12-13T21:02:19.271Z,29.15
2017-12-13T21:04:46.163Z,34.33
2017-12-13T21:07:13.317Z,30.52
2017-12-13T21:09:40.990Z,32.55
2017-12-13T21:12:08.546Z,31.23
2017-12-13T21:14:36.150Z,28.17
2017-12-13T21:17:02.994Z,27.65
2017-12-13T21:19:29.858Z,29.17
2017-12-13T21:21:56.722Z,28.90
2017-12-13T21:24:24.297Z,29.42
2017-12-13T21:26:51.917Z,32.45
2017-12-13T21:29:18.821Z,30.52
2017-12-13T21:31:45.735Z,35.25
2017-12-13T21:34:12.690Z,28.30
2017-12-13T21:36:39.560Z,30.12
2017-12-13T21:39:06.407Z,32.30
2017-12-13T21:41:33.283Z,31.62
2017-12-13T21:44:00.506Z,29.17
2017-12-13T21:46:27.303Z,29.25
2017-12-13T21:48:54.954Z,24.08
2017-12-13T21:51:21.814Z,29.95
2017-12-13T21:53:49.361Z,27.40
2017-12-13T21:56:16.250Z,33.40
2017-12-13T21:58:43.149Z,33.85
2017-12-13T22:01:17.049Z,36.28
2017-12-13T22:03:43.875Z,30.17
2017-12-13T22:06:10.715Z,27.55
2017-12-13T22:08:37.582Z,30.30
2017-12-13T22:11:04.450Z,30.58
2017-12-13T22:13:31.267Z,24.02
2017-12-13T22:15:58.858Z,28.05
2017-12-13T22:18:25.723Z,27.23
2017-12-13T22:20:53.258Z,26.55
2017-12-13T22:23:20.100Z,30.27
2017-12-13T22:25:47.716Z,28.20
2017-12-13T22:28:14.622Z,32.33
2017-12-13T22:30:41.454Z,29.25
2017-12-13T22:33:08.361Z,27.25
2017-12-13T22:35:35.963Z,29.33
2017-12-13T22:38:02.834Z,26.20
2017-12-13T22:40:29.714Z,30.48
2017-12-13T22:42:56.584Z,29.23
2017-12-13T22:45:23.426Z,26.30
2017-12-13T22:47:50.269Z,27.25
2017-12-13T22:50:17.108Z,26.73
2017-12-13T22:52:44.803Z,28.83
2017-12-13T22:55:11.678Z,26.90
2017-12-13T22:57:38.589Z,26.23
2017-12-13T23:00:06.130Z,26.98
2017-12-13T23:02:32.982Z,26.42
2017-12-13T23:05:00.623Z,27.92
2017-12-13T23:07:28.246Z,24.17
2017-12-13T23:09:55.081Z,27.17
2017-12-13T23:12:21.958Z,32.88
2017-12-13T23:14:49.550Z,33.38
2017-12-13T23:17:16.415Z,30.08
2017-12-13T23:19:43.281Z,31.02
2017-12-13T23:22:10.113Z,28.27
2017-12-13T23:24:36.970Z,29.15
2017-12-13T23:27:03.821Z,26.05
2017-12-13T23:29:30.735Z,27.50
2017-12-13T23:31:57.602Z,28.92
2017-12-13T23:34:24.474Z,26.37
2017-12-13T23:36:52.066Z,31.60
2017-12-13T23:39:18.934Z,26.48
2017-12-13T23:41:45.778Z,32.22
2017-12-13T23:44:12.810Z,30.50
2017-12-13T23:46:39.665Z,29.42
2017-12-13T23:49:06.513Z,31.98
2017-12-13T23:51:33.370Z,33.40
2017-12-13T23:54:00.243Z,28.10
2017-12-13T23:56:34.971Z,29.65
2017-12-13T23:59:02.557Z,30.77
